Time;durP1;ratioP1;P1;durP2;ratioP2;P2;SDS_P1;SDS_P2;PMS_P1;PMS_P2;Temp;Humidity;BMP_temperature;BMP_pressure;BME280_temperature;BME280_humidity;BME280_pressure;Samples;Min_cycle;Max_cycle;Signal;HPM_P1;HPM_P2
2022/04/10 00:01:53;;;;;;;9.23;2.55;;;1.70;99.90;;;;;;5010984;28;20034;-75
2022/04/10 00:04:19;;;;;;;12.38;2.35;;;1.70;99.90;;;;;;5010792;28;20581;-75
2022/04/10 00:06:44;;;;;;;11.55;2.10;;;1.80;99.90;;;;;;4994395;28;20374;-75
2022/04/10 00:09:13;;;;;;;12.98;2.40;;;1.80;99.90;;;;;;4977303;28;20072;-75
2022/04/10 00:11:39;;;;;;;9.95;2.13;;;1.90;99.90;;;;;;4990967;28;20102;-75
2022/04/10 00:14:04;;;;;;;9.68;3.53;;;2.00;99.90;;;;;;4991022;28;20046;-75
2022/04/10 00:16:30;;;;;;;14.45;2.78;;;2.10;99.90;;;;;;4990954;28;20513;-75
2022/04/10 00:19:01;;;;;;;9.90;4.10;;;2.10;99.90;;;;;;4987327;28;20045;-74
2022/04/10 00:21:27;;;;;;;12.98;2.30;;;2.30;99.90;;;;;;4991031;28;20073;-75
2022/04/10 00:23:53;;;;;;;12.93;2.72;;;2.30;99.90;;;;;;4990074;28;20062;-75
2022/04/10 00:26:19;;;;;;;11.43;2.75;;;2.40;99.90;;;;;;4990743;28;20509;-75
2022/04/10 00:28:44;;;;;;;8.18;2.40;;;2.50;99.90;;;;;;5002123;28;20125;-74
2022/04/10 00:31:10;;;;;;;12.57;2.47;;;2.50;99.90;;;;;;5008986;28;20061;-74
2022/04/10 00:33:35;;;;;;;10.38;2.22;;;2.50;99.90;;;;;;4974735;28;20046;-74
2022/04/10 00:36:02;;;;;;;8.57;2.38;;;2.60;99.90;;;;;;5006663;28;20169;-74
2022/04/10 00:38:27;;;;;;;9.68;2.30;;;2.60;99.90;;;;;;5000467;28;20128;-74
2022/04/10 00:40:53;;;;;;;11.02;2.67;;;2.70;99.90;;;;;;5010733;28;20125;-74
2022/04/10 00:43:18;;;;;;;12.25;2.50;;;2.70;99.90;;;;;;5010650;28;20044;-74
2022/04/10 00:45:45;;;;;;;8.65;2.30;;;2.70;99.90;;;;;;5001684;28;20050;-74
2022/04/10 00:48:10;;;;;;;10.25;2.33;;;2.70;99.90;;;;;;4979657;28;20034;-74
2022/04/10 00:50:36;;;;;;;8.55;2.40;;;2.60;99.90;;;;;;5010234;28;20412;-74
2022/04/10 00:53:02;;;;;;;12.35;2.70;;;2.50;99.90;;;;;;5010447;28;20093;-74
2022/04/10 00:55:29;;;;;;;7.25;1.85;;;2.50;99.90;;;;;;5004690;28;20489;-74
2022/04/10 00:57:54;;;;;;;13.48;2.80;;;2.50;99.90;;;;;;4995127;28;20046;-75
2022/04/10 01:00:20;;;;;;;12.02;2.60;;;2.50;99.90;;;;;;5012520;28;20038;-75
2022/04/10 01:02:45;;;;;;;9.60;2.25;;;2.40;99.90;;;;;;4995537;28;20077;-75
2022/04/10 01:05:11;;;;;;;10.80;2.60;;;2.40;99.90;;;;;;5013647;28;20042;-75
2022/04/10 01:07:37;;;;;;;12.35;3.28;;;2.30;99.90;;;;;;4996419;28;20093;-75
2022/04/10 01:10:04;;;;;;;9.85;2.22;;;2.30;99.90;;;;;;4993928;28;20041;-75
2022/04/10 01:12:32;;;;;;;7.53;2.40;;;2.30;99.90;;;;;;4977742;28;20042;-75
2022/04/10 01:14:59;;;;;;;9.23;2.40;;;2.30;99.90;;;;;;4999672;28;20127;-75
2022/04/10 01:17:27;;;;;;;12.85;2.75;;;2.30;99.90;;;;;;5013558;28;20049;-75
2022/04/10 01:19:54;;;;;;;10.20;2.03;;;2.30;99.90;;;;;;4994113;28;20500;-75
2022/04/10 01:22:38;;;;;;;12.88;2.95;;;2.40;99.90;;;;;;4994200;28;20054;-75
2022/04/10 01:25:06;;;;;;;14.23;2.95;;;2.40;99.90;;;;;;4994033;28;20042;-75
2022/04/10 01:27:38;;;;;;;8.60;2.40;;;2.50;99.90;;;;;;4993579;28;20074;-75
2022/04/10 01:30:06;;;;;;;10.52;2.55;;;2.50;99.90;;;;;;5012690;28;20052;-75
2022/04/10 01:32:32;;;;;;;12.52;3.17;;;2.50;99.90;;;;;;5013237;28;20057;-75
2022/04/10 01:35:00;;;;;;;12.75;3.22;;;2.50;99.90;;;;;;5013326;28;20042;-75
2022/04/10 01:37:27;;;;;;;17.88;3.25;;;2.50;99.90;;;;;;5013512;28;20042;-75
2022/04/10 01:39:53;;;;;;;12.73;2.38;;;2.50;99.90;;;;;;4998038;28;20054;-75
2022/04/10 01:42:19;;;;;;;10.98;2.47;;;2.40;99.90;;;;;;4977027;28;20396;-75
2022/04/10 01:44:45;;;;;;;9.70;2.38;;;2.40;99.90;;;;;;4993727;28;20516;-75
2022/04/10 01:47:10;;;;;;;8.80;2.05;;;2.30;99.90;;;;;;4993452;28;20081;-75
2022/04/10 01:49:37;;;;;;;11.20;3.30;;;2.30;99.90;;;;;;5007715;28;20037;-75
2022/04/10 01:52:03;;;;;;;11.60;2.88;;;2.30;99.90;;;;;;4979999;28;20042;-75
2022/04/10 01:54:29;;;;;;;12.18;2.80;;;2.20;99.90;;;;;;5010083;28;20034;-75
2022/04/10 01:56:55;;;;;;;10.70;2.50;;;2.20;99.90;;;;;;4996582;28;20488;-74
2022/04/10 01:59:21;;;;;;;8.80;2.60;;;2.30;99.90;;;;;;4999811;28;20117;-74
2022/04/10 02:01:48;;;;;;;11.98;2.55;;;2.30;99.90;;;;;;4993166;28;20453;-74
2022/04/10 02:04:14;;;;;;;10.63;2.10;;;2.40;99.90;;;;;;4993191;28;20477;-75
2022/04/10 02:06:40;;;;;;;9.80;2.70;;;2.50;99.90;;;;;;4977321;28;20045;-75
2022/04/10 02:09:07;;;;;;;11.90;2.15;;;2.60;99.90;;;;;;5001615;28;20108;-75
2022/04/10 02:11:32;;;;;;;6.88;2.97;;;2.70;99.90;;;;;;5013039;28;20603;-75
2022/04/10 02:13:58;;;;;;;6.85;2.25;;;2.70;99.90;;;;;;5002602;28;20050;-75
2022/04/10 02:16:23;;;;;;;11.80;2.08;;;2.80;99.90;;;;;;4992648;28;20054;-75
2022/04/10 02:18:49;;;;;;;10.57;2.70;;;2.80;99.90;;;;;;4998502;28;20042;-75
2022/04/10 02:21:15;;;;;;;10.90;2.08;;;2.80;99.90;;;;;;5012473;28;20046;-74
2022/04/10 02:23:41;;;;;;;9.32;1.80;;;2.80;99.90;;;;;;5012346;28;20084;-74
2022/04/10 02:26:07;;;;;;;7.38;2.63;;;2.70;99.90;;;;;;5012354;28;20041;-74
2022/04/10 02:28:32;;;;;;;8.65;1.90;;;2.70;99.90;;;;;;5008309;28;20563;-74
2022/04/10 02:30:58;;;;;;;7.93;1.70;;;2.70;99.90;;;;;;4976206;28;20057;-74
2022/04/10 02:33:23;;;;;;;7.80;2.22;;;2.70;99.90;;;;;;4993008;28;20117;-74
2022/04/10 02:35:49;;;;;;;6.10;1.83;;;2.60;99.90;;;;;;4992858;28;20050;-75
2022/04/10 02:38:16;;;;;;;13.75;3.15;;;2.70;99.90;;;;;;4992126;28;20053;-75
2022/04/10 02:40:43;;;;;;;7.25;1.80;;;2.60;99.90;;;;;;4993230;28;20146;-75
2022/04/10 02:43:10;;;;;;;10.48;2.63;;;2.60;99.90;;;;;;4994324;28;20173;-75
2022/04/10 02:45:36;;;;;;;12.15;2.30;;;2.60;99.90;;;;;;4987895;28;20109;-75
2022/04/10 02:48:02;;;;;;;10.15;2.60;;;2.50;99.90;;;;;;4992219;28;20034;-75
2022/04/10 02:50:27;;;;;;;9.95;2.47;;;2.50;99.90;;;;;;4992457;28;20089;-75
2022/04/10 02:52:54;;;;;;;11.60;3.08;;;2.40;99.90;;;;;;4995652;28;20077;-75
2022/04/10 02:55:20;;;;;;;8.07;2.25;;;2.30;99.90;;;;;;5005865;28;20393;-75
2022/04/10 02:57:45;;;;;;;13.40;3.00;;;2.30;99.90;;;;;;4992055;28;20039;-75
2022/04/10 03:00:12;;;;;;;7.10;2.60;;;2.20;99.90;;;;;;5005930;28;20045;-75
2022/04/10 03:02:41;;;;;;;11.82;2.38;;;2.20;99.90;;;;;;4992821;28;20046;-75
2022/04/10 03:05:10;;;;;;;15.52;3.50;;;2.30;99.90;;;;;;4992319;28;20405;-75
2022/04/10 03:07:35;;;;;;;9.45;2.58;;;2.30;99.90;;;;;;4991928;28;20079;-75
2022/04/10 03:10:02;;;;;;;12.98;2.60;;;2.40;99.90;;;;;;4991740;28;20073;-75
2022/04/10 03:12:27;;;;;;;8.23;2.58;;;2.40;99.90;;;;;;4991834;28;20061;-75
2022/04/10 03:14:53;;;;;;;10.27;2.60;;;2.30;99.90;;;;;;5001250;28;20037;-75
2022/04/10 03:17:18;;;;;;;6.47;2.10;;;2.30;99.90;;;;;;5011387;28;20037;-75
2022/04/10 03:19:44;;;;;;;7.53;2.42;;;2.20;99.90;;;;;;5000423;28;20064;-75
2022/04/10 03:22:09;;;;;;;10.88;2.88;;;2.20;99.90;;;;;;4992368;28;20046;-75
2022/04/10 03:24:35;;;;;;;13.40;3.00;;;2.20;99.90;;;;;;4991588;28;20224;-75
2022/04/10 03:27:00;;;;;;;10.93;2.15;;;2.20;99.90;;;;;;4991552;28;20488;-75
2022/04/10 03:29:26;;;;;;;13.13;2.40;;;2.10;99.90;;;;;;5000048;28;20056;-75
2022/04/10 03:31:51;;;;;;;11.85;2.88;;;2.10;99.90;;;;;;4994844;28;20045;-75
2022/04/10 03:34:17;;;;;;;9.20;2.22;;;2.10;99.90;;;;;;5010734;28;20041;-75
2022/04/10 03:36:43;;;;;;;11.45;2.55;;;2.10;99.90;;;;;;5009912;28;20045;-75
2022/04/10 03:39:09;;;;;;;10.38;1.92;;;2.20;99.90;;;;;;5098385;23;20041;-79
2022/04/10 03:41:43;;;;;;;8.30;2.30;;;2.20;99.90;;;;;;4984121;28;20053;-79
2022/04/10 03:44:12;;;;;;;8.10;2.35;;;2.10;99.90;;;;;;4983937;28;20033;-79
2022/04/10 03:46:45;;;;;;;10.20;3.13;;;2.20;99.90;;;;;;4995125;28;20037;-79
2022/04/10 03:49:19;;;;;;;8.98;2.45;;;2.00;99.90;;;;;;4990930;28;20049;-79
2022/04/10 03:51:48;;;;;;;10.13;2.33;;;2.10;99.90;;;;;;4956473;28;20038;-79
2022/04/10 03:54:24;;;;;;;8.45;2.47;;;2.00;99.90;;;;;;4959960;28;20177;-79
2022/04/10 03:56:53;;;;;;;7.35;2.33;;;2.10;99.90;;;;;;4961820;28;20408;-79
2022/04/10 03:59:26;;;;;;;9.27;2.20;;;2.20;99.90;;;;;;4971813;28;20415;-78
2022/04/10 04:02:03;;;;;;;10.15;2.33;;;2.30;99.90;;;;;;4968709;28;20073;-79
2022/04/10 04:05:48;;;;;;;;;;;;;;;;;;;;;
2022/04/10 04:08:58;;;;;;;7.03;1.63;;;2.60;99.90;;;;;;4882325;29;20044;-79
2022/04/10 04:12:08;;;;;;;4.40;1.58;;;2.80;99.90;;;;;;4928660;28;20043;-79
2022/04/10 04:15:02;;;;;;;5.03;1.60;;;2.70;99.90;;;;;;4991652;28;20070;-79
2022/04/10 04:18:02;;;;;;;3.22;1.20;;;2.70;99.90;;;;;;4997988;28;20076;-79
2022/04/10 04:20:31;;;;;;;9.00;1.80;;;2.80;99.90;;;;;;4967968;28;20051;-78
2022/04/10 04:23:14;;;;;;;;;;;2.70;99.90;;;;;;4964244;28;20046;-79
2022/04/10 04:25:47;;;;;;;8.50;1.95;;;2.80;99.90;;;;;;4966414;28;19917;-79
2022/04/10 04:28:22;;;;;;;3.85;1.25;;;2.80;99.90;;;;;;4965253;28;20085;-79
2022/04/10 04:31:00;;;;;;;4.68;1.45;;;2.80;99.90;;;;;;4983097;28;20030;-79
2022/04/10 04:33:30;;;;;;;4.50;1.23;;;2.90;99.90;;;;;;4990107;28;20057;-79
2022/04/10 04:36:04;;;;;;;4.63;0.95;;;2.90;99.90;;;;;;4985074;28;20041;-79
2022/04/10 04:38:57;;;;;;;8.10;1.63;;;2.90;99.90;;;;;;4931080;28;20039;-79
2022/04/10 04:41:33;;;;;;;5.70;1.42;;;2.90;99.90;;;;;;4961290;28;20090;-79
2022/04/10 04:44:35;;;;;;;5.47;1.30;;;2.90;99.90;;;;;;4977982;28;20077;-79
2022/04/10 04:48:12;;;;;;;4.15;1.50;;;2.90;99.90;;;;;;4988744;28;20054;-79
2022/04/10 04:51:45;;;;;;;4.95;1.58;;;2.90;99.90;;;;;;4983510;28;20432;-79
2022/04/10 04:54:39;;;;;;;5.30;1.30;;;2.90;99.90;;;;;;4944420;28;20551;-79
2022/04/10 04:57:42;;;;;;;3.13;1.30;;;2.90;99.90;;;;;;4978300;28;20053;-79
2022/04/10 05:00:41;;;;;;;3.72;1.08;;;2.90;99.90;;;;;;4975781;28;20042;-79
2022/04/10 05:03:16;;;;;;;4.13;1.20;;;3.00;99.90;;;;;;4982118;28;20112;-79
2022/04/10 05:05:51;;;;;;;4.68;1.35;;;2.90;99.90;;;;;;4971659;28;20050;-78
2022/04/10 05:08:28;;;;;;;4.00;1.25;;;2.90;99.90;;;;;;4962319;28;20049;-79
2022/04/10 05:11:11;;;;;;;5.05;1.73;;;3.10;99.90;;;;;;4962867;28;20050;-79
2022/04/10 05:14:03;;;;;;;3.10;1.25;;;3.10;99.90;;;;;;4962099;28;20042;-79
2022/04/10 05:16:41;;;;;;;4.63;1.52;;;3.20;99.90;;;;;;4996063;28;20539;-79
2022/04/10 05:19:15;;;;;;;3.47;1.20;;;3.10;99.90;;;;;;4947047;28;20046;-79
2022/04/10 05:22:08;;;;;;;4.35;1.33;;;3.20;99.90;;;;;;4976787;28;20057;-79
2022/04/10 05:24:37;;;;;;;4.63;1.23;;;3.10;99.90;;;;;;4993530;28;20124;-79
2022/04/10 05:27:26;;;;;;;6.22;1.48;;;3.10;99.90;;;;;;4982632;28;20049;-78
2022/04/10 05:30:06;;;;;;;3.17;1.30;;;3.00;99.90;;;;;;4963190;28;20446;-78
2022/04/10 05:32:51;;;;;;;2.17;1.10;;;3.10;99.90;;;;;;4966429;28;20386;-78
2022/04/10 05:35:55;;;;;;;5.70;1.40;;;3.10;99.90;;;;;;4995664;28;20104;-79
2022/04/10 05:38:29;;;;;;;3.10;1.13;;;3.10;99.90;;;;;;4962273;28;20590;-79
2022/04/10 05:41:02;;;;;;;3.22;0.88;;;3.20;99.90;;;;;;4972933;28;20115;-79
2022/04/10 05:43:44;;;;;;;3.75;1.50;;;3.30;99.90;;;;;;4981809;28;20038;-78
2022/04/10 05:46:38;;;;;;;4.63;1.17;;;3.30;99.90;;;;;;4968156;28;20092;-78
2022/04/10 05:49:28;;;;;;;3.28;1.30;;;3.30;99.90;;;;;;4961352;28;20064;-78
2022/04/10 05:52:01;;;;;;;3.72;1.10;;;3.30;99.90;;;;;;4962253;28;20558;-79
2022/04/10 05:54:42;;;;;;;2.30;1.20;;;3.40;99.90;;;;;;4961845;28;20046;-79
2022/04/10 05:57:09;;;;;;;2.35;1.00;;;3.40;99.90;;;;;;4961202;28;20536;-79
2022/04/10 05:59:41;;;;;;;3.55;1.30;;;3.50;99.90;;;;;;4976466;28;20042;-79
2022/04/10 06:02:16;;;;;;;4.88;1.38;;;3.50;99.90;;;;;;4957797;28;20428;-79
2022/04/10 06:04:48;;;;;;;4.53;1.45;;;3.50;99.90;;;;;;4946880;28;20060;-79
2022/04/10 06:07:20;;;;;;;4.95;1.40;;;3.60;99.90;;;;;;4960178;28;20069;-79
2022/04/10 06:09:54;;;;;;;3.50;1.40;;;3.60;99.90;;;;;;4961623;28;20042;-79
2022/04/10 06:12:23;;;;;;;3.05;1.40;;;3.60;99.90;;;;;;4922979;28;20109;-79
2022/04/10 06:14:49;;;;;;;5.65;1.38;;;3.60;99.90;;;;;;4962509;28;20050;-77
2022/04/10 06:17:15;;;;;;;4.90;1.35;;;3.60;99.90;;;;;;4960627;28;20039;-78
2022/04/10 06:19:40;;;;;;;1.95;1.10;;;3.60;99.90;;;;;;4958515;28;20046;-78
2022/04/10 06:22:09;;;;;;;8.18;1.48;;;3.50;99.90;;;;;;4957547;28;20149;-78
2022/04/10 06:24:38;;;;;;;2.58;1.30;;;3.60;99.90;;;;;;4950155;28;20125;-77
2022/04/10 06:27:04;;;;;;;3.50;1.08;;;3.80;99.90;;;;;;4960003;28;20050;-77
2022/04/10 06:29:32;;;;;;;2.78;0.95;;;4.00;99.90;;;;;;4960343;28;20500;-76
2022/04/10 06:32:03;;;;;;;5.93;1.10;;;4.10;99.90;;;;;;4972829;28;20058;-75
2022/04/10 06:34:29;;;;;;;2.40;0.90;;;4.20;99.90;;;;;;4969631;28;20034;-75
2022/04/10 06:36:55;;;;;;;3.95;1.13;;;4.30;99.90;;;;;;4963106;28;20400;-77
2022/04/10 06:39:33;;;;;;;4.05;1.23;;;4.30;99.90;;;;;;4960405;28;20045;-77
2022/04/10 06:41:58;;;;;;;2.10;1.27;;;4.20;99.90;;;;;;4960173;28;20042;-76
2022/04/10 06:44:30;;;;;;;3.30;1.00;;;4.20;99.90;;;;;;4960974;28;20508;-77
2022/04/10 06:46:56;;;;;;;4.90;1.50;;;4.10;99.90;;;;;;4959884;28;20106;-76
2022/04/10 06:49:26;;;;;;;4.93;1.23;;;4.20;99.90;;;;;;4959754;28;20058;-77
2022/04/10 06:52:01;;;;;;;5.30;1.08;;;4.40;99.90;;;;;;4961588;28;20099;-78
2022/04/10 06:54:29;;;;;;;5.57;1.20;;;4.60;99.90;;;;;;4948979;28;20501;-77
2022/04/10 06:56:55;;;;;;;3.60;1.25;;;4.80;99.90;;;;;;4978151;28;20068;-76
2022/04/10 06:59:21;;;;;;;2.42;0.82;;;4.80;99.90;;;;;;4959609;28;20073;-77
2022/04/10 07:01:50;;;;;;;3.45;1.10;;;4.80;99.90;;;;;;4959879;28;20134;-76
2022/04/10 07:04:16;;;;;;;3.65;1.10;;;4.70;99.90;;;;;;4959583;28;20037;-77
2022/04/10 07:06:46;;;;;;;3.22;0.88;;;4.60;99.90;;;;;;4959481;28;20039;-77
2022/04/10 07:09:13;;;;;;;2.42;0.93;;;4.60;99.90;;;;;;4959157;28;20042;-77
2022/04/10 07:11:45;;;;;;;4.32;1.13;;;4.60;99.90;;;;;;4959930;28;20046;-77
2022/04/10 07:14:16;;;;;;;2.45;0.93;;;4.60;99.90;;;;;;4959160;28;20404;-77
2022/04/10 07:16:48;;;;;;;4.97;1.50;;;4.60;99.90;;;;;;4944893;28;20437;-77
2022/04/10 07:19:13;;;;;;;7.85;1.52;;;4.60;99.90;;;;;;4958860;28;20099;-77
2022/04/10 07:24:26;;;;;;;5.18;1.27;;;4.70;99.90;;;;;;4975586;28;20046;-77
2022/04/10 07:26:55;;;;;;;3.67;1.20;;;4.80;99.90;;;;;;4958970;28;20049;-77
2022/04/10 07:29:24;;;;;;;5.85;1.58;;;4.90;99.90;;;;;;4975174;28;20404;-77
2022/04/10 07:31:55;;;;;;;5.13;1.42;;;5.00;99.90;;;;;;4975122;28;20046;-77
2022/04/10 07:34:24;;;;;;;2.40;1.30;;;5.00;99.90;;;;;;4959094;28;20192;-77
2022/04/10 07:36:52;;;;;;;4.32;1.50;;;5.20;99.90;;;;;;4959206;28;20038;-77
2022/04/10 07:39:18;;;;;;;7.57;1.67;;;5.20;99.90;;;;;;4938176;28;20042;-77
2022/04/10 07:41:44;;;;;;;8.48;1.40;;;5.40;99.90;;;;;;4955991;28;20042;-77
2022/04/10 07:44:12;;;;;;;3.35;0.90;;;5.60;99.90;;;;;;4955322;28;20051;-79
2022/04/10 07:49:28;;;;;;;2.58;1.13;;;5.90;99.90;;;;;;4955578;28;20134;-77
2022/04/10 07:51:54;;;;;;;7.45;1.50;;;6.00;99.90;;;;;;4957763;28;20055;-77
2022/04/10 07:54:20;;;;;;;7.93;1.42;;;6.20;99.90;;;;;;4975088;28;20447;-77
2022/04/10 07:56:48;;;;;;;3.75;1.40;;;6.20;99.90;;;;;;4942827;28;20104;-77
2022/04/10 07:59:16;;;;;;;6.97;1.40;;;6.20;99.90;;;;;;4958227;28;20053;-77
2022/04/10 08:01:41;;;;;;;9.13;1.60;;;6.20;99.90;;;;;;4959137;28;20088;-77
2022/04/10 08:04:09;;;;;;;5.13;1.30;;;6.30;99.90;;;;;;4958349;28;20440;-77
2022/04/10 08:06:40;;;;;;;7.05;1.58;;;6.40;99.90;;;;;;4958428;28;20117;-78
2022/04/10 08:09:11;;;;;;;7.10;1.45;;;6.50;99.90;;;;;;4958184;28;20042;-77
2022/04/10 08:11:38;;;;;;;7.03;1.70;;;6.70;99.90;;;;;;4958608;28;20046;-78
2022/04/10 08:14:06;;;;;;;7.93;1.33;;;6.80;99.90;;;;;;4958342;28;20479;-78
2022/04/10 08:16:34;;;;;;;6.63;1.55;;;6.90;99.90;;;;;;4958273;28;20592;-79
2022/04/10 08:19:03;;;;;;;12.55;1.70;;;7.00;99.90;;;;;;4957313;28;20622;-77
2022/04/10 08:21:32;;;;;;;6.60;1.60;;;7.30;99.90;;;;;;4958541;28;20105;-77
2022/04/10 08:24:03;;;;;;;6.88;1.58;;;7.60;99.90;;;;;;4958965;28;20040;-79
2022/04/10 08:26:37;;;;;;;6.22;1.67;;;7.70;99.90;;;;;;4961324;28;20038;-80
2022/04/10 08:29:06;;;;;;;4.05;1.23;;;7.80;99.90;;;;;;4966783;28;20049;-80
2022/04/10 08:31:35;;;;;;;10.60;1.70;;;7.80;99.90;;;;;;4964843;28;20073;-80
2022/04/10 08:34:04;;;;;;;8.15;2.03;;;7.70;99.90;;;;;;4968424;28;20125;-80
2022/04/10 08:36:42;;;;;;;5.22;1.55;;;7.80;99.90;;;;;;4996474;28;20050;-80
2022/04/10 08:39:11;;;;;;;4.20;1.10;;;8.40;99.90;;;;;;4970508;28;20035;-80
2022/04/10 08:41:49;;;;;;;6.50;1.58;;;9.40;99.90;;;;;;4962481;28;20043;-81
2022/04/10 08:47:20;;;;;;;10.40;1.80;;;9.00;99.90;;;;;;4981943;28;20049;-80
2022/04/10 08:49:55;;;;;;;4.35;1.52;;;8.40;99.90;;;;;;4973928;28;20041;-81
2022/04/10 09:03:46;;;;;;;10.05;1.63;;;10.30;99.90;;;;;;4885422;29;20127;-82
2022/04/10 09:06:55;;;;;;;7.25;1.50;;;10.90;99.90;;;;;;4916017;29;20048;-83
2022/04/10 09:09:21;;;;;;;4.45;1.30;;;11.30;99.90;;;;;;4920163;29;20131;-80
2022/04/10 09:11:47;;;;;;;6.90;1.75;;;11.80;99.90;;;;;;4934113;29;20148;-80
2022/04/10 09:14:22;;;;;;;8.20;1.67;;;12.20;99.90;;;;;;4977639;28;20060;-80
2022/04/10 09:17:09;;;;;;;5.55;1.40;;;12.80;99.90;;;;;;4961890;28;20404;-80
2022/04/10 09:19:38;;;;;;;8.13;1.88;;;12.70;99.10;;;;;;4959120;28;20038;-79
2022/04/10 09:22:23;;;;;;;5.22;1.20;;;12.00;99.90;;;;;;4963269;28;20570;-79
2022/04/10 09:25:14;;;;;;;6.60;1.55;;;11.60;99.90;;;;;;4982886;28;20397;-80
2022/04/10 09:27:47;;;;;;;5.78;1.30;;;11.90;99.90;;;;;;4965117;28;20049;-80
2022/04/10 09:30:17;;;;;;;6.07;1.38;;;12.00;99.90;;;;;;4963185;28;20058;-80
2022/04/10 09:32:56;;;;;;;5.38;1.10;;;12.60;99.90;;;;;;4967002;28;20073;-80
2022/04/10 09:35:26;;;;;;;5.75;1.25;;;13.10;99.90;;;;;;4965334;28;20354;-80
2022/04/10 09:37:56;;;;;;;7.60;1.52;;;13.20;99.90;;;;;;4980620;23;20579;-73
2022/04/10 09:40:33;;;;;;;10.88;2.00;;;12.70;99.90;;;;;;4976340;28;20042;-73
2022/04/10 09:43:07;;;;;;;7.68;1.52;;;12.40;99.90;;;;;;4968628;28;20105;-73
2022/04/10 09:45:38;;;;;;;7.25;2.30;;;12.60;99.90;;;;;;4992336;28;20042;-73
2022/04/10 09:48:20;;;;;;;5.60;1.40;;;12.90;99.90;;;;;;4976025;28;20063;-73
2022/04/10 09:50:54;;;;;;;4.93;1.33;;;13.10;99.90;;;;;;4946908;28;20098;-73
2022/04/10 09:53:20;;;;;;;6.22;1.30;;;13.10;99.90;;;;;;4944166;29;20039;-73
2022/04/10 09:55:53;;;;;;;3.95;1.33;;;13.30;99.90;;;;;;4930099;28;20034;-73
2022/04/10 09:58:19;;;;;;;6.60;1.55;;;13.70;99.90;;;;;;4948520;28;20042;-73
2022/04/10 10:00:46;;;;;;;7.18;1.30;;;13.90;99.90;;;;;;4951838;29;20047;-73
2022/04/10 10:03:12;;;;;;;4.38;1.20;;;13.50;99.90;;;;;;4940969;28;20050;-74
2022/04/10 10:05:38;;;;;;;6.47;1.33;;;13.10;99.90;;;;;;4952448;28;20035;-73
2022/04/10 10:08:05;;;;;;;6.70;1.27;;;12.70;99.90;;;;;;4941713;29;20464;-73
2022/04/10 10:10:33;;;;;;;7.65;1.55;;;12.40;99.90;;;;;;4944073;28;20058;-73
2022/04/10 10:13:08;;;;;;;6.22;1.17;;;12.00;99.90;;;;;;4946787;28;20035;-72
2022/04/10 10:15:38;;;;;;;6.68;1.20;;;11.80;99.90;;;;;;4942817;28;20062;-73
2022/04/10 10:18:06;;;;;;;6.53;1.13;;;11.60;99.90;;;;;;4940012;28;20093;-73
2022/04/10 10:20:32;;;;;;;4.15;1.20;;;11.70;99.90;;;;;;4923658;29;20043;-73
2022/04/10 10:23:01;;;;;;;4.60;1.40;;;12.10;99.90;;;;;;4935300;29;20039;-73
2022/04/10 10:25:41;;;;;;;6.80;1.42;;;12.80;99.90;;;;;;4966478;28;20032;-74
2022/04/10 10:28:15;;;;;;;5.15;1.30;;;13.10;99.90;;;;;;4938606;29;20066;-71
2022/04/10 10:30:41;;;;;;;5.55;1.30;;;12.70;99.90;;;;;;4938455;28;20093;-73
2022/04/10 10:33:17;;;;;;;7.22;1.30;;;12.20;99.90;;;;;;4934464;28;20060;-73
2022/04/10 10:35:47;;;;;;;5.03;1.33;;;12.30;99.90;;;;;;4939229;29;20054;-73
2022/04/10 10:38:23;;;;;;;4.90;1.20;;;12.90;99.90;;;;;;4937857;29;20047;-73
2022/04/10 10:40:50;;;;;;;4.13;0.80;;;13.50;99.90;;;;;;4940183;28;20051;-72
2022/04/10 10:43:24;;;;;;;3.67;1.00;;;13.90;99.90;;;;;;4939998;28;20506;-72
2022/04/10 10:45:52;;;;;;;4.45;1.15;;;14.40;99.90;;;;;;4938710;29;20046;-73
2022/04/10 10:48:32;;;;;;;4.95;1.20;;;14.80;99.90;;;;;;4949924;28;20106;-73
2022/04/10 10:51:10;;;;;;;5.88;1.25;;;15.30;99.90;;;;;;4944472;28;20071;-73
2022/04/10 10:53:44;;;;;;;5.70;1.10;;;15.70;99.90;;;;;;4947737;29;20126;-75
2022/04/10 10:56:39;;;;;;;5.68;1.63;;;15.60;99.90;;;;;;4953153;28;20520;-73
2022/04/10 10:59:29;;;;;;;5.28;1.42;;;15.00;99.90;;;;;;4947041;28;20517;-74
2022/04/10 11:02:08;;;;;;;6.20;1.20;;;14.10;94.30;;;;;;4948739;28;20426;-73
2022/04/10 11:04:41;;;;;;;3.90;1.08;;;13.80;99.90;;;;;;4937714;28;20034;-73
2022/04/10 11:07:13;;;;;;;4.75;1.00;;;14.00;99.90;;;;;;4938701;29;20035;-73
2022/04/10 11:09:58;;;;;;;5.15;1.13;;;14.40;99.90;;;;;;4951155;28;20066;-73
2022/04/10 11:12:32;;;;;;;5.20;2.10;;;15.00;77.40;;;;;;4943675;29;20050;-73
2022/04/10 11:15:02;;;;;;;4.93;1.00;;;15.30;99.90;;;;;;4937211;29;20039;-73
2022/04/10 11:17:28;;;;;;;4.13;1.50;;;14.80;99.90;;;;;;4937172;29;20046;-73
2022/04/10 11:20:05;;;;;;;2.78;1.00;;;14.30;99.90;;;;;;4941424;28;20046;-73
2022/04/10 11:22:38;;;;;;;2.80;0.80;;;14.60;93.80;;;;;;4956354;28;20093;-73
2022/04/10 11:25:06;;;;;;;5.55;0.93;;;14.30;95.20;;;;;;4956358;28;20452;-73
2022/04/10 11:27:47;;;;;;;4.40;1.10;;;13.70;96.40;;;;;;4955554;28;20048;-73
2022/04/10 11:30:24;;;;;;;3.15;1.00;;;13.80;89.10;;;;;;4955904;28;20077;-73
2022/04/10 11:33:00;;;;;;;3.47;0.70;;;14.00;97.50;;;;;;4956188;28;20035;-73
2022/04/10 11:35:34;;;;;;;4.57;1.00;;;14.30;91.30;;;;;;4956176;28;20571;-73
2022/04/10 11:38:08;;;;;;;6.78;1.05;;;13.80;92.70;;;;;;4942822;29;20042;-73
2022/04/10 11:40:37;;;;;;;6.75;1.60;;;13.20;87.80;;;;;;4968285;28;20468;-72
2022/04/10 11:43:04;;;;;;;4.18;1.27;;;13.30;94.70;;;;;;4936758;29;20079;-72
2022/04/10 11:45:31;;;;;;;6.30;1.15;;;14.20;98.10;;;;;;4968977;28;20493;-72
2022/04/10 11:48:01;;;;;;;4.10;1.10;;;15.00;99.60;;;;;;4959185;28;20476;-73
2022/04/10 11:50:28;;;;;;;6.70;1.10;;;15.50;98.80;;;;;;4936525;29;20035;-73
2022/04/10 11:52:58;;;;;;;3.75;0.80;;;16.10;96.50;;;;;;4936708;29;20094;-73
2022/04/10 11:55:40;;;;;;;4.22;1.10;;;15.90;73.60;;;;;;4952638;28;20126;-73
2022/04/10 11:58:25;;;;;;;5.28;1.08;;;15.60;88.80;;;;;;4950159;28;20046;-73
2022/04/10 12:00:54;;;;;;;4.70;1.02;;;15.80;88.70;;;;;;4954396;28;20051;-73
2022/04/10 12:03:28;;;;;;;6.05;1.40;;;16.00;75.10;;;;;;4939048;29;20047;-73
2022/04/10 12:05:55;;;;;;;6.03;1.30;;;16.10;83.10;;;;;;4936421;29;20061;-73
2022/04/10 12:08:22;;;;;;;6.20;1.35;;;16.50;94.40;;;;;;4956175;28;20070;-73
2022/04/10 12:10:56;;;;;;;4.88;1.10;;;16.40;84.90;;;;;;4948205;28;20047;-73
2022/04/10 12:13:30;;;;;;;6.90;1.35;;;15.40;85.10;;;;;;4955550;28;20528;-73
2022/04/10 12:16:13;;;;;;;4.88;1.13;;;14.80;91.40;;;;;;4955827;28;20445;-73
2022/04/10 12:18:53;;;;;;;4.53;1.07;;;15.30;90.20;;;;;;4955283;28;20081;-73
2022/04/10 12:21:22;;;;;;;3.42;1.08;;;15.20;68.10;;;;;;4940258;29;20290;-73
2022/04/10 12:24:08;;;;;;;4.25;1.35;;;14.50;74.70;;;;;;4952541;28;20502;-73
2022/04/10 12:26:34;;;;;;;6.22;1.33;;;14.40;85.50;;;;;;4936291;29;20043;-73
2022/04/10 12:29:00;;;;;;;2.67;1.00;;;15.10;92.10;;;;;;4920119;29;20051;-73
2022/04/10 12:31:26;;;;;;;6.40;1.40;;;15.70;89.70;;;;;;4936299;29;20065;-73
2022/04/10 12:33:53;;;;;;;4.57;1.30;;;16.20;86.80;;;;;;4954693;28;20043;-73
2022/04/10 12:36:21;;;;;;;5.03;1.05;;;16.50;88.20;;;;;;4952297;28;20124;-73
2022/04/10 12:38:51;;;;;;;2.28;1.00;;;16.60;83.90;;;;;;4963122;28;20031;-73
2022/04/10 12:41:29;;;;;;;6.85;1.30;;;16.20;77.10;;;;;;4936195;29;20453;-73
2022/04/10 12:44:04;;;;;;;5.72;1.30;;;16.30;70.10;;;;;;4936615;28;20039;-73
2022/04/10 12:46:35;;;;;;;5.00;1.00;;;16.80;81.70;;;;;;4955326;28;20084;-73
2022/04/10 12:49:10;;;;;;;6.68;1.02;;;17.10;78.00;;;;;;4946900;29;20043;-73
2022/04/10 12:51:35;;;;;;;5.65;1.10;;;17.20;73.30;;;;;;4968090;28;20039;-73
2022/04/10 12:54:01;;;;;;;5.07;1.20;;;16.90;80.10;;;;;;4941078;28;20560;-73
2022/04/10 12:56:31;;;;;;;4.82;1.05;;;16.50;79.50;;;;;;4958925;28;20039;-73
2022/04/10 12:58:57;;;;;;;3.20;1.10;;;16.60;83.30;;;;;;4951361;29;20051;-73
2022/04/10 13:01:33;;;;;;;4.95;1.20;;;16.80;84.60;;;;;;4939718;29;20397;-73
2022/04/10 13:04:00;;;;;;;6.00;1.48;;;17.00;74.50;;;;;;4939914;29;20042;-73
2022/04/10 13:06:45;;;;;;;4.22;1.10;;;16.50;76.90;;;;;;4948200;28;20501;-73
2022/04/10 13:09:12;;;;;;;4.20;0.95;;;16.60;63.20;;;;;;4942437;28;20051;-73
2022/04/10 13:11:38;;;;;;;6.60;1.50;;;16.50;68.90;;;;;;4959274;28;20119;-73
2022/04/10 13:14:06;;;;;;;3.17;1.02;;;16.60;67.60;;;;;;4939439;29;20047;-73
2022/04/10 13:16:40;;;;;;;3.45;1.42;;;17.10;68.70;;;;;;4939670;29;20150;-73
2022/04/10 13:19:11;;;;;;;2.72;0.88;;;17.50;67.40;;;;;;4960903;28;20086;-73
2022/04/10 13:21:38;;;;;;;3.63;1.38;;;18.00;64.30;;;;;;4955297;29;20035;-73
2022/04/10 13:24:05;;;;;;;3.45;1.02;;;17.90;68.40;;;;;;4955791;29;20039;-73
2022/04/10 13:26:33;;;;;;;4.57;0.98;;;17.00;61.60;;;;;;4939232;29;20134;-73
2022/04/10 13:28:59;;;;;;;5.50;0.98;;;16.20;65.10;;;;;;4934877;28;20130;-73
2022/04/10 13:31:25;;;;;;;2.40;0.73;;;15.80;68.70;;;;;;4958243;28;20043;-73
2022/04/10 13:33:51;;;;;;;2.63;0.77;;;16.30;72.70;;;;;;4958249;28;20100;-73
2022/04/10 13:36:17;;;;;;;3.70;0.88;;;16.90;69.40;;;;;;4946441;29;20035;-72
2022/04/10 13:38:42;;;;;;;2.88;0.80;;;17.30;65.10;;;;;;4938733;29;20039;-72